createdAt,value
2023-11-30T05:24:35.663Z,99569.78
2023-11-30T05:28:39.477Z,99569.78
2023-11-30T05:32:42.469Z,99579.56
2023-11-30T05:36:45.536Z,99576.03
2023-11-30T05:40:48.356Z,99556.09
2023-11-30T05:44:51.621Z,99570.81
2023-11-30T05:48:55.453Z,99570.22
2023-11-30T05:52:58.722Z,99567.69
2023-11-30T05:57:02.737Z,99561.28
2023-11-30T06:01:06.064Z,99549.22
2023-11-30T06:05:09.315Z,99567.69
2023-11-30T06:09:12.092Z,99553.91
2023-11-30T06:13:16.918Z,99581.19
2023-11-30T06:17:20.197Z,99582.81
2023-11-30T06:21:23.366Z,99592.16
2023-11-30T06:25:26.157Z,99573.25
2023-11-30T06:29:30.602Z,99568.28
2023-11-30T06:33:33.246Z,99550.81
2023-11-30T06:37:36.382Z,99546.34
2023-11-30T06:41:39.277Z,99544.53
2023-11-30T06:45:42.754Z,99556.56
2023-11-30T06:49:46.644Z,99553.06
2023-11-30T06:53:49.697Z,99557.56
2023-11-30T06:57:52.462Z,99564.38
2023-11-30T07:01:55.572Z,99572.16
2023-11-30T07:05:59.086Z,99578.78
2023-11-30T07:10:02.422Z,99598.72
2023-11-30T07:14:05.168Z,99587.59
2023-11-30T07:18:10.377Z,99583.50
2023-11-30T07:22:13.367Z,99565.00
2023-11-30T07:26:16.887Z,99561.81
2023-11-30T07:30:19.728Z,99560.50
2023-11-30T07:34:22.873Z,99570.94
2023-11-30T07:38:25.703Z,99581.47
2023-11-30T07:42:35.115Z,99578.03
2023-11-30T07:46:40.161Z,99569.28
2023-11-30T07:50:43.186Z,99572.13
2023-11-30T07:54:45.937Z,99576.44
2023-11-30T07:58:50.069Z,99583.78
2023-11-30T08:02:54.063Z,99592.28
2023-11-30T08:06:57.754Z,99584.06
2023-11-30T08:11:02.482Z,99580.03
2023-11-30T08:15:08.385Z,99573.75
2023-11-30T08:19:11.833Z,99586.97
2023-11-30T08:23:15.719Z,99564.19
2023-11-30T08:27:20.029Z,99568.22
2023-11-30T08:31:23.835Z,99562.44
2023-11-30T08:35:28.635Z,99553.28
2023-11-30T08:39:32.920Z,99543.75
2023-11-30T08:43:35.915Z,99539.22
2023-11-30T08:47:44.207Z,99523.38
2023-11-30T08:51:47.323Z,99506.47
2023-11-30T08:55:50.700Z,99490.19
2023-11-30T08:59:53.633Z,99487.94
2023-11-30T09:04:06.601Z,99488.72
2023-11-30T09:08:09.533Z,99485.53
2023-11-30T09:12:13.092Z,99476.66
2023-11-30T09:16:15.984Z,99484.00
2023-11-30T09:20:21.434Z,99485.50
2023-11-30T09:24:24.619Z,99482.16
2023-11-30T09:28:28.010Z,99467.53
2023-11-30T09:32:30.964Z,99466.25
2023-11-30T09:36:34.636Z,99462.59
2023-11-30T09:40:37.674Z,99458.81
2023-11-30T09:44:41.080Z,99452.53
2023-11-30T09:48:44.437Z,99468.94
2023-11-30T09:52:47.967Z,99466.59
2023-11-30T09:56:50.785Z,99454.66
2023-11-30T10:00:53.873Z,99447.00
2023-11-30T10:04:58.582Z,99434.09
2023-11-30T10:09:03.354Z,99435.25
2023-11-30T10:13:07.172Z,99436.59
2023-11-30T10:17:10.283Z,99436.81
2023-11-30T10:21:13.964Z,99425.81
2023-11-30T10:25:18.663Z,99433.47
2023-11-30T10:29:28.319Z,99411.75
2023-11-30T10:33:35.992Z,99406.78
2023-11-30T10:37:45.282Z,99394.50
2023-11-30T10:41:54.256Z,99379.38
2023-11-30T10:45:59.716Z,99370.03
2023-11-30T10:50:02.647Z,99368.97
2023-11-30T10:54:12.113Z,99364.25
2023-11-30T10:58:21.025Z,99342.03
2023-11-30T11:02:24.145Z,99337.41
2023-11-30T11:06:27.952Z,99334.56
2023-11-30T11:10:40.512Z,99325.59
2023-11-30T11:14:43.304Z,99316.72
2023-11-30T11:18:46.520Z,99297.69
2023-11-30T11:22:50.939Z,99284.75
2023-11-30T11:27:00.923Z,99288.50
2023-11-30T11:31:04.603Z,99293.13
2023-11-30T11:35:08.609Z,99294.97
2023-11-30T11:39:20.535Z,99298.13
2023-11-30T11:43:24.196Z,99289.06
2023-11-30T11:47:33.712Z,99293.47
2023-11-30T11:51:46.953Z,99284.41
2023-11-30T11:55:49.844Z,99273.81
2023-11-30T11:59:53.957Z,99261.25
2023-11-30T12:03:56.897Z,99254.56
2023-11-30T12:08:01.620Z,99259.75
2023-11-30T12:12:11.220Z,99263.88
2023-11-30T12:16:14.648Z,99276.81
2023-11-30T12:20:20.176Z,99265.12
2023-11-30T12:24:23.891Z,99267.00
2023-11-30T12:28:35.093Z,99251.09
2023-11-30T12:32:41.804Z,99254.37
2023-11-30T12:36:50.160Z,99244.97
2023-11-30T12:40:54.702Z,99256.72
2023-11-30T12:44:57.458Z,99246.87
2023-11-30T12:49:00.930Z,99240.31
2023-11-30T12:53:03.801Z,99237.41
2023-11-30T12:57:07.153Z,99229.06
2023-11-30T13:01:09.860Z,99224.09
2023-11-30T13:05:14.424Z,99223.13
2023-11-30T13:09:17.284Z,99209.50
2023-11-30T13:13:26.211Z,99208.44
2023-11-30T13:17:35.375Z,99203.31
2023-11-30T13:21:39.470Z,99187.34
2023-11-30T13:25:42.922Z,99183.91
2023-11-30T13:29:47.161Z,99170.47
2023-11-30T13:33:52.639Z,99162.63
2023-11-30T13:37:59.412Z,99166.19
2023-11-30T13:42:02.973Z,99162.37
2023-11-30T13:46:07.360Z,99155.59
2023-11-30T13:50:20.523Z,99163.09
2023-11-30T13:54:33.489Z,99178.53
2023-11-30T13:58:36.473Z,99171.88
2023-11-30T14:02:40.937Z,99170.22
2023-11-30T14:06:45.446Z,99174.22
2023-11-30T14:10:48.505Z,99185.09
2023-11-30T14:14:52.841Z,99186.28
2023-11-30T14:18:56.114Z,99168.31
2023-11-30T14:22:59.821Z,99154.37
2023-11-30T14:27:04.520Z,99160.06
2023-11-30T14:31:08.834Z,99160.06
2023-11-30T14:35:13.289Z,99152.22
2023-11-30T14:39:16.419Z,99141.09
2023-11-30T14:43:19.194Z,99148.78
2023-11-30T14:47:37.508Z,99160.28
2023-11-30T14:51:40.370Z,99133.81
2023-11-30T14:55:43.451Z,99120.94
2023-11-30T14:59:48.126Z,99111.13
2023-11-30T15:03:51.277Z,99118.47
2023-11-30T15:07:54.316Z,99100.59
2023-11-30T15:11:57.700Z,99101.22
2023-11-30T15:16:00.783Z,99098.19
2023-11-30T15:20:05.159Z,99085.06
2023-11-30T15:24:08.180Z,99085.59
2023-11-30T15:28:12.929Z,99092.38
2023-11-30T15:32:15.615Z,99084.88
2023-11-30T15:36:19.658Z,99077.13
2023-11-30T15:40:22.741Z,99062.81
2023-11-30T15:44:26.187Z,99051.69
